AirNav   Air Wisconsin Up To $57,000 Bonus
 
 1097 users online  

25CL Van Dyke Strip Airport
Pleasant Grove, California, USA

GOING TO PLEASANT GROVE?


FAA INFORMATION EFFECTIVE 01 DECEMBER 2022

Location

FAA Identifier: 25CL
Lat/Long: 38-51-59.6320N 121-29-03.8440W
38-51.993867N 121-29.064067W
38.8665644,-121.4844011
(estimated)
Elevation: 48 ft. / 15 m (estimated)
Variation: 16E (1985)
From city: 3 miles N of PLEASANT GROVE, CA
Time zone: UTC -8 (UTC -7 during Daylight Saving Time)
Zip code: 95668

Airport Operations

Airport use: Private use. Permission required prior to landing
Activation date: 04/1959
Control tower: no
ARTCC: OAKLAND CENTER
FSS: RANCHO MURIETA FLIGHT SERVICE STATION
Attendance: UNATNDD
Wind indicator: yes
Segmented circle: no

Airport Communications

WX AWOS-3 at LHM (7 nm E): 124.25 (916-645-0698)
WX ASOS at SMF (11 nm SW): PHONE 916-649-3996
WX AWOS-3 at MCC (13 nm S): 125.975 (916-641-1272)
WX ASOS at MYV (14 nm N): 118.475 (530-742-0695)
WX AWOS-3 at AUN (20 nm E): 119.375 (530-888-8934)

Nearby radio navigation aids

VOR radial/distance  VOR name  Freq  Var
MCCr326/12.5MC CLELLAN VOR/DME109.2017E
MYVr147/14.5MARYSVILLE VOR/DME110.8016E
SACr350/25.6SACRAMENTO VORTAC115.2017E
ILAr098/28.1WILLIAMS VORTAC114.4018E
HNWr267/35.4HANGTOWN VOR/DME115.5017E

Airport Services

Airframe service: NONE
Powerplant service: NONE

Runway Information

Runway N/S

Dimensions: 2900 x 50 ft. / 884 x 15 m
Surface: asphalt/dirt
RUNWAY N  RUNWAY S
Traffic pattern: rightleft
Obstructions: 30 ft. pline30 ft. pline

Airport Ownership and Management from official FAA records

Ownership: Privately-owned
Owner: JAMES C VAN DYKE
4036 PLEASANT GROVE RD
PLEASANT GROVE, CA 95668
Phone 916-655-3171
Manager: JAMES C VAN DYKE
4036 PLEASANT GROVE RD
PLEASANT GROVE, CA 95668
Phone 916-655-3171

Airport Operational Statistics

Aircraft based on the field: 4
Single engine airplanes: 4
    

Additional Remarks

FOR CD CTC NORCAL APCH AT 916-361-6874.

Instrument Procedures

There are no published instrument procedures at 25CL.

Some nearby airports with instrument procedures:

KLHM - Lincoln Regional Airport/Karl Harder Field (7 nm E)
KSMF - Sacramento International Airport (11 nm SW)
KMCC - Mc Clellan Airfield (13 nm S)
KMYV - Yuba County Airport (14 nm N)
KBAB - Beale Air Force Base (16 nm N)
KAUN - Auburn Municipal Airport (20 nm E)
 
Loc | Ops | Rwys | IFR | FBO | Links
Com | Nav | Svcs | Stats | Notes
Area around 25CL (Van Dyke Strip Airport)
 
Road maps at: MapQuest Bing Google
 
Aerial photo
No photo
 
Sectional chart

 
Airport distance calculator
Flying to Van Dyke Strip Airport? Find the distance to fly.

From to 25CL

Sunrise and sunset
Times for 06-Dec-2022
 Local
(UTC-8)
 Zulu
(UTC)
Morning civil twilight06:4214:42
Sunrise07:1115:11
Sunset16:4300:43
Evening civil twilight17:1201:12

Current date and time
Zulu (UTC)  07-Dec-2022 02:44:11
Local (UTC-8)  06-Dec-2022 18:44:11
 
METAR
KLHM 
7nm E 
070235Z AUTO 00000KT 10SM CLR 07/06 A3007 RMK AO1
KSMF 
11nm SW 
070153Z 33006KT 10SM FEW100 11/06 A3007 RMK AO2 SLP180 T01060061
KMCC 
13nm S 
070235Z AUTO 00000KT 10SM CLR 10/06 A3008 RMK AO2
KBAB 
16nm N 
070155Z AUTO 33003KT 10SM CLR 08/05 A3007 RMK AO2 SLP186 T00810050 $
KAUN 
20nm E 
070235Z AUTO 00000KT 10SM CLR 06/05 A3007 RMK A01
TAF
KSMF 
11nm SW 
061734Z 0618/0718 33007KT P6SM SCT020 BKN050 BKN100 FM062300 VRB05KT P6SM SCT250
KMCC 
13nm S 
061734Z 0618/0718 31005KT P6SM SCT040 BKN050 BKN150 FM062000 VRB05KT P6SM SCT250 FM071100 VRB03KT 6SM BR SKC FM071500 VRB03KT 4SM BR SKC
KBAB 
16nm N 
061900Z 0619/0801 32006KT 9999 SCT070 QNH3005INS BECMG 0622/0623 32006KT 9999 FEW050 SCT060 QNH3005INS BECMG 0703/0704 VRB06KT 9999 SKC QNH3007INS BECMG 0714/0715 16006KT 9999 SKC QNH3017INS TX13/0622Z TN02/0716Z
NOTAMs
Click for the latest NOTAMs
NOTAMs are issued by the DoD/FAA and will open in a separate window not controlled by AirNav.

 

 
 

Would you like to see your business listed on this page?

 If your business provides an interesting product or service to pilots, flight crews, aircraft, or users of the Van Dyke Strip Airport, you should consider listing it here.  To start the listing process, click on the button below
 
Add a business
 

Other Pages about Van Dyke Strip Airport

Update a link
 
Copyright © AirNav, LLC. All rights reserved. Privacy Policy  Contact